CMP weather

Campo Alegre Airport
Campo Alegre, Huila Department, Colombia

Public forecast

Using degrees Celsius for public forecast. Weather courtesy of forecast.io.

Closest aviation weather report (METAR) to Campo Alegre Airport

Report is more than 6 hours old.

Closest report is Benito Salas Airport, 17.5 nm (32.3 km) N. Retrieved 2019/10/17 03:00 UTC (7 hours ago):

SKNV 170300Z 22004KT 9999 NSC 25/20 A2993

Closest aviation forecast (TAF) to Campo Alegre Airport

Closest forecast is Alfonso Bonilla Aragon International Airport, 81.8 nm (151.5 km) NW. Retrieved 2019/10/17 06:53 UTC (3 hours ago):

TAF SKCL 170430Z 1706/1806 VRB02KT 9999 SCT020 BKN080 TEMPO 1708/1713 5000 DZ BR BECMG 1717/1719 34012KT TEMPO 1719/1722 TS SCT020CB TX30/1719Z TN18/1711Z